createdAt,value
2019-03-21T00:00:01.079Z,99287.48
2019-03-21T00:02:32.312Z,99288.66
2019-03-21T00:05:03.246Z,99288.06
2019-03-21T00:07:34.030Z,99276.27
2019-03-21T00:10:37.325Z,99285.16
2019-03-21T00:13:08.479Z,99279.87
2019-03-21T00:15:41.854Z,99283.41
2019-03-21T00:18:14.149Z,99278.88
2019-03-21T00:20:45.438Z,99278.19
2019-03-21T00:23:16.619Z,99271.10
2019-03-21T00:25:48.220Z,99279.46
2019-03-21T00:28:19.009Z,99277.90
2019-03-21T00:30:50.370Z,99278.16
2019-03-21T00:33:21.584Z,99273.38
2019-03-21T00:35:52.326Z,99281.58
2019-03-21T00:38:23.412Z,99278.79
2019-03-21T00:40:54.569Z,99280.94
2019-03-21T00:43:25.804Z,99279.16
2019-03-21T00:45:56.805Z,99277.54
2019-03-21T00:48:27.981Z,99276.17
2019-03-21T00:50:59.043Z,99273.56
2019-03-21T00:53:30.470Z,99282.34
2019-03-21T00:56:01.693Z,99279.80
2019-03-21T00:58:32.586Z,99278.99
2019-03-21T01:01:03.708Z,99278.58
2019-03-21T01:03:34.535Z,99282.89
2019-03-21T01:06:05.774Z,99283.31
2019-03-21T01:08:36.760Z,99279.42
2019-03-21T01:11:07.799Z,99279.06
2019-03-21T01:13:38.711Z,99269.48
2019-03-21T01:16:09.795Z,99277.41
2019-03-21T01:18:41.316Z,99277.52
2019-03-21T01:21:12.734Z,99282.29
2019-03-21T01:23:43.990Z,99282.30
2019-03-21T01:26:15.381Z,99280.45
2019-03-21T01:28:46.793Z,99284.48
2019-03-21T01:31:17.903Z,99287.98
2019-03-21T01:33:48.954Z,99292.39
2019-03-21T01:36:21.127Z,99300.69
2019-03-21T01:38:52.132Z,99295.84
2019-03-21T01:41:23.345Z,99288.42
2019-03-21T01:43:54.653Z,99290.59
2019-03-21T01:46:25.691Z,99300.30
2019-03-21T01:48:56.708Z,99298.08
2019-03-21T01:51:27.799Z,99297.64
2019-03-21T01:53:59.063Z,99303.32
2019-03-21T01:56:30.658Z,99307.69
2019-03-21T01:59:01.602Z,99314.26
2019-03-21T02:01:32.805Z,99310.80
2019-03-21T02:04:04.133Z,99318.20
2019-03-21T02:06:34.980Z,99319.94
2019-03-21T02:09:08.740Z,99324.72
2019-03-21T02:11:41.033Z,99329.52
2019-03-21T02:14:12.487Z,99328.64
2019-03-21T02:16:43.540Z,99329.95
2019-03-21T02:19:14.593Z,99326.05
2019-03-21T02:21:45.466Z,99325.16
2019-03-21T02:24:16.236Z,99323.86
2019-03-21T02:26:47.217Z,99324.72
2019-03-21T02:29:18.554Z,99321.24
2019-03-21T02:31:49.739Z,99324.29
2019-03-21T02:34:20.893Z,99323.88
2019-03-21T02:36:52.350Z,99318.19
2019-03-21T02:39:23.650Z,99320.39
2019-03-21T02:41:54.573Z,99322.98
2019-03-21T02:44:25.645Z,99326.46
2019-03-21T02:46:57.014Z,99326.48
2019-03-21T02:49:28.384Z,99327.34
2019-03-21T02:51:59.246Z,99326.46
2019-03-21T02:54:30.508Z,99322.56
2019-03-21T02:57:01.598Z,99322.54
2019-03-21T02:59:32.470Z,99329.06
2019-03-21T03:02:03.826Z,99327.33
2019-03-21T03:04:35.162Z,99331.27
2019-03-21T03:07:06.054Z,99337.78
2019-03-21T03:09:37.810Z,99329.05
2019-03-21T03:12:09.071Z,99332.50
2019-03-21T03:14:40.004Z,99343.34
2019-03-21T03:17:11.117Z,99339.81
2019-03-21T03:19:41.861Z,99335.11
2019-03-21T03:22:13.282Z,99339.50
2019-03-21T03:24:44.258Z,99342.12
2019-03-21T03:27:15.249Z,99343.02
2019-03-21T03:29:46.377Z,99352.58
2019-03-21T03:32:17.657Z,99354.34
2019-03-21T03:34:48.986Z,99353.88
2019-03-21T03:37:20.023Z,99351.73
2019-03-21T03:39:51.188Z,99351.27
2019-03-21T03:42:21.991Z,99349.12
2019-03-21T03:44:53.132Z,99345.16
2019-03-21T03:47:24.508Z,99352.08
2019-03-21T03:49:55.852Z,99346.95
2019-03-21T03:52:26.709Z,99348.70
2019-03-21T03:54:58.019Z,99347.82
2019-03-21T03:57:29.557Z,99353.03
2019-03-21T04:00:00.877Z,99353.91
2019-03-21T04:02:31.736Z,99356.54
2019-03-21T04:05:02.361Z,99362.17
2019-03-21T04:07:33.309Z,99356.50
2019-03-21T04:10:05.043Z,99359.55
2019-03-21T04:12:36.171Z,99358.71
2019-03-21T04:15:07.888Z,99359.13
2019-03-21T04:17:39.126Z,99365.24
2019-03-21T04:20:12.224Z,99361.27
2019-03-21T04:22:43.511Z,99358.66
2019-03-21T04:25:16.818Z,99361.70
2019-03-21T04:27:48.008Z,99367.36
2019-03-21T04:30:19.247Z,99376.93
2019-03-21T04:32:50.522Z,99377.81
2019-03-21T04:35:21.632Z,99383.94
2019-03-21T04:37:52.752Z,99384.74
2019-03-21T04:40:23.958Z,99387.36
2019-03-21T04:42:55.054Z,99384.33
2019-03-21T04:45:26.041Z,99388.70
2019-03-21T04:47:56.933Z,99390.93
2019-03-21T04:50:28.677Z,99390.89
2019-03-21T04:52:59.632Z,99390.86
2019-03-21T04:55:30.953Z,99396.95
2019-03-21T04:58:02.219Z,99396.08
2019-03-21T05:00:34.521Z,99399.12
2019-03-21T05:03:06.239Z,99408.69
2019-03-21T05:05:37.214Z,99402.55
2019-03-21T05:08:08.322Z,99408.27
2019-03-21T05:10:39.606Z,99406.53
2019-03-21T05:13:10.590Z,99395.53
2019-03-21T05:15:41.833Z,99395.96
2019-03-21T05:18:16.145Z,99396.38
2019-03-21T05:20:47.496Z,99404.17
2019-03-21T05:23:18.693Z,99395.87
2019-03-21T05:25:49.754Z,99399.73
2019-03-21T05:28:21.050Z,99397.50
2019-03-21T05:30:58.030Z,99396.12
2019-03-21T05:33:29.158Z,99395.65
2019-03-21T05:36:00.162Z,99400.88
2019-03-21T05:38:31.887Z,99404.72
2019-03-21T05:41:02.900Z,99405.09
2019-03-21T05:43:40.805Z,99409.03
2019-03-21T05:46:12.000Z,99396.62
2019-03-21T05:48:43.304Z,99393.52
2019-03-21T05:51:14.398Z,99399.44
2019-03-21T05:53:45.415Z,99402.02
2019-03-21T05:56:16.631Z,99406.75
2019-03-21T05:58:47.913Z,99411.94
2019-03-21T06:01:19.260Z,99409.67
2019-03-21T06:03:47.932Z,99413.13
2019-03-21T06:06:22.840Z,99416.21
2019-03-21T06:08:54.028Z,99422.33
2019-03-21T06:11:25.330Z,99423.08
2019-03-21T06:13:56.275Z,99431.67
2019-03-21T06:16:37.234Z,99430.66
2019-03-21T06:19:11.001Z,99429.76
2019-03-21T06:22:15.829Z,99430.26
2019-03-21T06:25:28.631Z,99439.25
2019-03-21T06:27:59.759Z,99442.14
2019-03-21T06:30:30.593Z,99448.00
2019-03-21T06:33:01.472Z,99450.05
2019-03-21T06:35:32.613Z,99455.70
2019-03-21T06:38:03.712Z,99451.20
2019-03-21T06:40:34.865Z,99455.51
2019-03-21T06:43:05.998Z,99463.25
2019-03-21T06:45:47.528Z,99460.64
2019-03-21T06:48:10.443Z,99467.92
2019-03-21T06:50:41.509Z,99467.73
2019-03-21T06:53:12.435Z,99466.69
2019-03-21T06:55:43.667Z,99469.05
2019-03-21T06:58:14.929Z,99465.32
2019-03-21T07:00:45.864Z,99463.72
2019-03-21T07:03:16.964Z,99464.23
2019-03-21T07:05:47.926Z,99460.28
2019-03-21T07:08:19.017Z,99459.55
2019-03-21T07:10:50.188Z,99443.72
2019-03-21T07:13:21.427Z,99441.20
2019-03-21T07:15:52.606Z,99447.18
2019-03-21T07:18:23.668Z,99440.52
2019-03-21T07:20:55.042Z,99443.88
2019-03-21T07:23:26.146Z,99441.17
2019-03-21T07:25:57.175Z,99443.28
2019-03-21T07:28:28.379Z,99452.95
2019-03-21T07:31:00.646Z,99464.62
2019-03-21T07:33:31.851Z,99458.05
2019-03-21T07:36:02.813Z,99463.06
2019-03-21T07:38:33.829Z,99465.80
2019-03-21T07:41:04.955Z,99465.52
2019-03-21T07:43:35.963Z,99476.98
2019-03-21T07:46:06.948Z,99477.80
2019-03-21T07:48:38.207Z,99483.16
2019-03-21T07:51:09.329Z,99495.08
2019-03-21T07:53:40.186Z,99486.66
2019-03-21T07:56:10.920Z,99485.53
2019-03-21T07:58:45.226Z,99486.40
2019-03-21T08:01:16.371Z,99487.17
2019-03-21T08:03:47.566Z,99487.25
2019-03-21T08:06:18.664Z,99487.48
2019-03-21T08:08:49.964Z,99497.63
2019-03-21T08:11:20.678Z,99492.67
2019-03-21T08:13:51.680Z,99487.21
2019-03-21T08:16:22.706Z,99487.08
2019-03-21T08:18:53.897Z,99485.67
2019-03-21T08:21:25.079Z,99487.97
2019-03-21T08:23:56.343Z,99483.36
2019-03-21T08:26:27.395Z,99490.44
2019-03-21T08:28:58.382Z,99473.59
2019-03-21T08:31:29.505Z,99473.59
2019-03-21T08:34:00.617Z,99487.92
2019-03-21T08:36:31.607Z,99484.19
2019-03-21T08:39:02.585Z,99478.03
2019-03-21T08:41:33.970Z,99485.87
2019-03-21T08:44:04.868Z,99485.00
2019-03-21T08:46:35.898Z,99481.13
2019-03-21T08:49:06.894Z,99488.83
2019-03-21T08:51:37.886Z,99486.10
2019-03-21T08:54:08.838Z,99490.17
2019-03-21T08:56:39.834Z,99486.88
2019-03-21T08:59:10.428Z,99487.55
2019-03-21T09:01:41.531Z,99488.98
2019-03-21T09:04:12.533Z,99482.52
2019-03-21T09:06:43.267Z,99494.30
2019-03-21T09:09:14.119Z,99487.24
2019-03-21T09:11:44.855Z,99479.68
2019-03-21T09:14:15.649Z,99485.02
2019-03-21T09:16:46.599Z,99476.66
2019-03-21T09:19:17.498Z,99488.47
2019-03-21T09:21:48.330Z,99481.70
2019-03-21T09:24:18.855Z,99483.29
2019-03-21T09:26:49.834Z,99488.56
2019-03-21T09:29:20.594Z,99492.83
2019-03-21T09:31:51.669Z,99493.56
2019-03-21T09:34:22.759Z,99487.78
2019-03-21T09:36:53.782Z,99490.48
2019-03-21T09:39:24.834Z,99487.12
2019-03-21T09:41:55.861Z,99491.84
2019-03-21T09:44:30.351Z,99494.82
2019-03-21T09:47:01.412Z,99493.92
2019-03-21T09:49:32.139Z,99491.03
2019-03-21T09:52:03.220Z,99492.64
2019-03-21T09:54:34.292Z,99489.61
2019-03-21T09:57:05.206Z,99484.48
2019-03-21T09:59:35.835Z,99487.39
2019-03-21T10:02:07.181Z,99477.50
2019-03-21T10:04:38.241Z,99475.02
2019-03-21T10:07:09.297Z,99480.00
2019-03-21T10:09:40.286Z,99468.53
2019-03-21T10:12:11.426Z,99464.46
2019-03-21T10:14:42.871Z,99461.95
2019-03-21T10:17:13.673Z,99456.27
2019-03-21T10:19:44.787Z,99451.44
2019-03-21T10:22:16.071Z,99445.81
2019-03-21T10:24:47.294Z,99450.67
2019-03-21T10:27:18.472Z,99444.59
2019-03-21T10:29:49.748Z,99441.77
2019-03-21T10:32:21.062Z,99445.95
2019-03-21T10:34:52.332Z,99433.76
2019-03-21T10:37:23.581Z,99429.38
2019-03-21T10:39:54.628Z,99436.50
2019-03-21T10:42:25.545Z,99423.83
2019-03-21T10:44:56.402Z,99427.93
2019-03-21T10:47:27.440Z,99419.95
2019-03-21T10:49:58.560Z,99419.24
2019-03-21T10:52:29.361Z,99409.45
2019-03-21T10:55:00.456Z,99404.70
2019-03-21T10:57:31.555Z,99403.04
2019-03-21T11:00:02.587Z,99404.94
2019-03-21T11:02:33.779Z,99398.22
2019-03-21T11:05:05.114Z,99392.49
2019-03-21T11:07:36.346Z,99395.84
2019-03-21T11:10:08.003Z,99393.30
2019-03-21T11:12:38.988Z,99391.11
2019-03-21T11:15:10.054Z,99379.50
2019-03-21T11:17:41.226Z,99379.47
2019-03-21T11:20:14.659Z,99372.55
2019-03-21T11:22:45.898Z,99360.42
2019-03-21T11:25:17.094Z,99356.31
2019-03-21T11:27:48.302Z,99351.11
2019-03-21T11:30:22.391Z,99351.80
2019-03-21T11:32:53.625Z,99342.67
2019-03-21T11:35:24.858Z,99351.91
2019-03-21T11:37:56.019Z,99340.31
2019-03-21T11:40:27.338Z,99335.58
2019-03-21T11:42:58.670Z,99327.59
2019-03-21T11:45:29.909Z,99322.13
2019-03-21T11:48:01.151Z,99316.57
2019-03-21T11:50:32.189Z,99309.78
2019-03-21T11:53:03.558Z,99304.68
2019-03-21T11:55:34.709Z,99301.75
2019-03-21T11:58:05.875Z,99294.35
2019-03-21T12:00:44.312Z,99293.02
2019-03-21T12:03:10.033Z,99294.00
2019-03-21T12:05:41.050Z,99294.89
2019-03-21T12:08:12.281Z,99292.02
2019-03-21T12:10:43.337Z,99293.09
2019-03-21T12:13:14.651Z,99296.14
2019-03-21T12:15:45.904Z,99291.72
2019-03-21T12:18:16.788Z,99286.01
2019-03-21T12:20:47.892Z,99280.30
2019-03-21T12:23:19.119Z,99282.96
2019-03-21T12:25:50.046Z,99277.03
2019-03-21T12:28:20.990Z,99274.95
2019-03-21T12:30:52.113Z,99273.27
2019-03-21T12:33:23.187Z,99278.26
2019-03-21T12:35:54.296Z,99269.64
2019-03-21T12:38:25.552Z,99276.80
2019-03-21T12:40:59.089Z,99263.30
2019-03-21T12:43:30.212Z,99264.17
2019-03-21T12:46:02.061Z,99264.06
2019-03-21T12:48:33.339Z,99263.87
2019-03-21T12:51:04.573Z,99252.47
2019-03-21T12:53:35.570Z,99262.26
2019-03-21T12:56:07.023Z,99255.53
2019-03-21T12:58:38.412Z,99251.05
2019-03-21T13:01:09.733Z,99246.23
2019-03-21T13:03:40.851Z,99240.63
2019-03-21T13:06:12.071Z,99243.72
2019-03-21T13:08:46.360Z,99240.05
2019-03-21T13:11:17.234Z,99241.94
2019-03-21T13:13:48.361Z,99233.95
2019-03-21T13:16:19.595Z,99238.98
2019-03-21T13:18:50.817Z,99238.98
2019-03-21T13:21:21.975Z,99230.41
2019-03-21T13:23:53.288Z,99230.91
2019-03-21T13:26:24.772Z,99224.58
2019-03-21T13:28:55.929Z,99222.05
2019-03-21T13:31:27.040Z,99224.68
2019-03-21T13:33:58.385Z,99219.45
2019-03-21T13:36:31.730Z,99226.66
2019-03-21T13:39:02.462Z,99218.97
2019-03-21T13:41:33.652Z,99226.02
2019-03-21T13:44:04.903Z,99221.31
2019-03-21T13:46:36.259Z,99216.05
2019-03-21T13:49:07.586Z,99211.39
2019-03-21T13:51:38.860Z,99213.46
2019-03-21T13:54:09.993Z,99221.78
2019-03-21T13:56:40.945Z,99213.55
2019-03-21T13:59:12.263Z,99200.25
2019-03-21T14:01:43.593Z,99191.94
2019-03-21T14:04:14.751Z,99196.62
2019-03-21T14:06:45.826Z,99194.94
2019-03-21T14:09:17.026Z,99198.76
2019-03-21T14:11:48.228Z,99200.09
2019-03-21T14:14:19.309Z,99205.80
2019-03-21T14:16:51.073Z,99202.25
2019-03-21T14:19:22.639Z,99203.33
2019-03-21T14:21:54.007Z,99206.98
2019-03-21T14:24:25.042Z,99201.15
2019-03-21T14:26:56.463Z,99201.03
2019-03-21T14:29:27.614Z,99203.73
2019-03-21T14:31:58.782Z,99204.58
2019-03-21T14:34:30.191Z,99196.25
2019-03-21T14:37:01.417Z,99198.69
2019-03-21T14:39:32.424Z,99192.13
2019-03-21T14:42:03.368Z,99193.86
2019-03-21T14:44:34.658Z,99187.91
2019-03-21T14:47:06.084Z,99182.98
2019-03-21T14:49:37.161Z,99180.17
2019-03-21T14:52:08.512Z,99181.19
2019-03-21T14:54:39.997Z,99180.11
2019-03-21T14:57:11.416Z,99185.17
2019-03-21T14:59:42.408Z,99173.69
2019-03-21T15:02:13.842Z,99173.62
2019-03-21T15:04:45.062Z,99170.77
2019-03-21T15:07:18.594Z,99170.41
2019-03-21T15:09:49.052Z,99176.38
2019-03-21T15:12:20.376Z,99171.39
2019-03-21T15:14:51.383Z,99167.23
2019-03-21T15:17:22.432Z,99169.98
2019-03-21T15:19:53.541Z,99166.22
2019-03-21T15:22:24.658Z,99168.08
2019-03-21T15:24:55.832Z,99167.88
2019-03-21T15:27:26.838Z,99172.33
2019-03-21T15:29:58.245Z,99165.83
2019-03-21T15:32:29.633Z,99169.78
2019-03-21T15:35:00.740Z,99163.34
2019-03-21T15:37:32.020Z,99164.58
2019-03-21T15:40:03.481Z,99165.42
2019-03-21T15:42:34.748Z,99165.05
2019-03-21T15:45:21.479Z,99169.16
2019-03-21T15:47:41.104Z,99166.32
2019-03-21T15:50:16.485Z,99167.20
2019-03-21T15:52:47.670Z,99169.22
2019-03-21T15:55:19.150Z,99165.56
2019-03-21T15:57:50.343Z,99178.05
2019-03-21T16:00:30.111Z,99169.15
2019-03-21T16:03:01.483Z,99167.84
2019-03-21T16:05:32.659Z,99171.95
2019-03-21T16:08:03.812Z,99172.18
2019-03-21T16:10:34.984Z,99169.29
2019-03-21T16:13:06.534Z,99171.61
2019-03-21T16:15:38.029Z,99176.62
2019-03-21T16:18:09.222Z,99182.10
2019-03-21T16:20:40.171Z,99178.13
2019-03-21T16:23:10.943Z,99190.90
2019-03-21T16:25:42.253Z,99189.50
2019-03-21T16:28:13.706Z,99187.41
2019-03-21T16:30:44.882Z,99196.48
2019-03-21T16:33:18.197Z,99186.64
2019-03-21T16:35:49.611Z,99196.83
2019-03-21T16:38:20.874Z,99193.36
2019-03-21T16:40:51.884Z,99201.52
2019-03-21T16:43:22.951Z,99199.10
2019-03-21T16:45:54.083Z,99206.52
2019-03-21T16:48:25.530Z,99206.24
2019-03-21T16:50:56.805Z,99201.16
2019-03-21T16:53:27.753Z,99207.89
2019-03-21T16:56:01.272Z,99213.89
2019-03-21T16:58:32.226Z,99212.91
2019-03-21T17:01:03.364Z,99218.69
2019-03-21T17:03:34.426Z,99218.86
2019-03-21T17:06:05.482Z,99217.19
2019-03-21T17:08:36.469Z,99213.77
2019-03-21T17:11:07.763Z,99217.47
2019-03-21T17:13:39.125Z,99212.98
2019-03-21T17:16:09.981Z,99209.71
2019-03-21T17:18:41.198Z,99221.75
2019-03-21T17:21:12.562Z,99223.61
2019-03-21T17:23:43.757Z,99224.31
2019-03-21T17:26:16.034Z,99224.46
2019-03-21T17:28:48.263Z,99229.50
2019-03-21T17:31:19.451Z,99235.09
2019-03-21T17:33:50.649Z,99237.33
2019-03-21T17:36:21.943Z,99238.59
2019-03-21T17:38:52.733Z,99238.74
2019-03-21T17:41:23.767Z,99237.86
2019-03-21T17:43:55.194Z,99237.08
2019-03-21T17:46:26.356Z,99247.92
2019-03-21T17:48:57.924Z,99249.08
2019-03-21T17:51:29.110Z,99243.57
2019-03-21T17:54:00.260Z,99245.13
2019-03-21T17:56:31.424Z,99247.55
2019-03-21T17:59:02.671Z,99255.20
2019-03-21T18:01:33.892Z,99253.48
2019-03-21T18:04:05.164Z,99262.20
2019-03-21T18:06:36.539Z,99262.34
2019-03-21T18:09:08.753Z,99257.98
2019-03-21T18:11:39.906Z,99258.59
2019-03-21T18:14:11.004Z,99262.78
2019-03-21T18:16:42.810Z,99261.37
2019-03-21T18:19:13.946Z,99265.24
2019-03-21T18:21:45.217Z,99271.97
2019-03-21T18:24:16.300Z,99271.81
2019-03-21T18:26:47.699Z,99276.34
2019-03-21T18:29:18.664Z,99275.06
2019-03-21T18:31:50.068Z,99275.69
2019-03-21T18:34:21.508Z,99270.98
2019-03-21T18:36:52.468Z,99270.83
2019-03-21T18:39:23.641Z,99275.50
2019-03-21T18:41:56.027Z,99278.77
2019-03-21T18:44:27.280Z,99281.03
2019-03-21T18:46:58.468Z,99270.04
2019-03-21T18:49:31.015Z,99279.51
2019-03-21T18:52:02.501Z,99283.73
2019-03-21T18:54:33.613Z,99275.03
2019-03-21T18:57:04.678Z,99277.95
2019-03-21T18:59:35.901Z,99276.42
2019-03-21T19:02:07.441Z,99282.33
2019-03-21T19:04:40.289Z,99274.52
2019-03-21T19:07:12.012Z,99274.79
2019-03-21T19:09:44.151Z,99276.05
2019-03-21T19:12:15.664Z,99271.86
2019-03-21T19:14:47.045Z,99268.61
2019-03-21T19:17:18.323Z,99266.09
2019-03-21T19:19:49.547Z,99263.48
2019-03-21T19:22:20.745Z,99262.81
2019-03-21T19:24:52.934Z,99262.08
2019-03-21T19:27:24.317Z,99259.58
2019-03-21T19:29:55.577Z,99258.50
2019-03-21T19:32:26.679Z,99258.94
2019-03-21T19:34:57.806Z,99256.39
2019-03-21T19:37:29.102Z,99254.75
2019-03-21T19:40:00.331Z,99257.54
2019-03-21T19:42:32.050Z,99254.31
2019-03-21T19:45:03.507Z,99261.05
2019-03-21T19:47:36.927Z,99259.30
2019-03-21T19:50:09.538Z,99262.94
2019-03-21T19:52:40.597Z,99269.33
2019-03-21T19:55:11.559Z,99263.00
2019-03-21T19:57:42.759Z,99266.88
2019-03-21T20:00:16.308Z,99271.88
2019-03-21T20:02:47.828Z,99264.70
2019-03-21T20:05:19.006Z,99265.64
2019-03-21T20:07:50.373Z,99260.83
2019-03-21T20:10:22.260Z,99268.73
2019-03-21T20:12:53.219Z,99269.13
2019-03-21T20:15:24.194Z,99263.23
2019-03-21T20:17:55.317Z,99263.67
2019-03-21T20:20:26.820Z,99269.53
2019-03-21T20:22:57.994Z,99274.21
2019-03-21T20:25:29.713Z,99275.48
2019-03-21T20:28:01.409Z,99272.77
2019-03-21T20:30:33.863Z,99274.47
2019-03-21T20:33:04.929Z,99267.75
2019-03-21T20:35:36.251Z,99272.27
2019-03-21T20:38:08.328Z,99265.38
2019-03-21T20:40:39.598Z,99273.25
2019-03-21T20:43:10.947Z,99277.20
2019-03-21T20:45:42.295Z,99275.84
2019-03-21T20:48:13.319Z,99277.94
2019-03-21T20:50:44.527Z,99278.48
2019-03-21T20:53:15.548Z,99277.81
2019-03-21T20:55:53.641Z,99279.45
2019-03-21T20:58:19.296Z,99279.05
2019-03-21T21:00:50.634Z,99280.73
2019-03-21T21:03:21.986Z,99280.84
2019-03-21T21:05:53.143Z,99282.22
2019-03-21T21:08:24.150Z,99285.07
2019-03-21T21:10:55.356Z,99288.61
2019-03-21T21:13:26.499Z,99284.60
2019-03-21T21:15:57.579Z,99277.95
2019-03-21T21:18:28.674Z,99291.62
2019-03-21T21:20:59.871Z,99290.72
2019-03-21T21:23:30.961Z,99288.33
2019-03-21T21:26:05.760Z,99281.75
2019-03-21T21:28:35.087Z,99287.42
2019-03-21T21:31:06.555Z,99293.16
2019-03-21T21:33:37.561Z,99295.06
2019-03-21T21:36:08.869Z,99290.34
2019-03-21T21:38:39.956Z,99297.48
2019-03-21T21:41:11.391Z,99298.03
2019-03-21T21:43:42.394Z,99304.70
2019-03-21T21:46:13.534Z,99304.73
2019-03-21T21:48:44.869Z,99310.84
2019-03-21T21:51:15.909Z,99306.56
2019-03-21T21:53:47.225Z,99317.44
2019-03-21T21:56:18.501Z,99319.92
2019-03-21T21:58:49.756Z,99316.01
2019-03-21T22:01:21.010Z,99316.70
2019-03-21T22:04:03.857Z,99320.98
2019-03-21T22:06:25.025Z,99317.85
2019-03-21T22:08:56.092Z,99323.00
2019-03-21T22:11:27.248Z,99321.30
2019-03-21T22:13:58.363Z,99321.67
2019-03-21T22:16:29.454Z,99323.34
2019-03-21T22:19:00.493Z,99321.56
2019-03-21T22:21:31.716Z,99321.36
2019-03-21T22:24:02.550Z,99317.88
2019-03-21T22:26:35.761Z,99314.92
2019-03-21T22:29:07.221Z,99313.84
2019-03-21T22:31:38.202Z,99314.09
2019-03-21T22:34:09.436Z,99308.63
2019-03-21T22:36:49.287Z,99314.59
2019-03-21T22:39:13.659Z,99312.27
2019-03-21T22:41:44.858Z,99318.22
2019-03-21T22:44:16.218Z,99314.66
2019-03-21T22:46:47.471Z,99317.17
2019-03-21T22:49:18.551Z,99314.69
2019-03-21T22:51:49.661Z,99310.44
2019-03-21T22:54:21.452Z,99310.57
2019-03-21T22:56:52.555Z,99314.54
2019-03-21T22:59:23.352Z,99309.12
2019-03-21T23:01:54.383Z,99319.49
2019-03-21T23:04:25.640Z,99315.52
2019-03-21T23:06:56.687Z,99317.22
2019-03-21T23:09:27.796Z,99321.44
2019-03-21T23:11:59.017Z,99322.80
2019-03-21T23:14:30.066Z,99318.05
2019-03-21T23:17:01.228Z,99322.69
2019-03-21T23:19:32.356Z,99319.97
2019-03-21T23:22:03.500Z,99319.62
2019-03-21T23:24:34.296Z,99322.23
2019-03-21T23:27:05.358Z,99322.53
2019-03-21T23:29:36.724Z,99326.08
2019-03-21T23:32:07.963Z,99333.08
2019-03-21T23:34:39.097Z,99323.94
2019-03-21T23:37:10.371Z,99337.03
2019-03-21T23:39:41.494Z,99323.14
2019-03-21T23:42:12.856Z,99319.43
2019-03-21T23:44:43.717Z,99318.31
2019-03-21T23:47:14.818Z,99320.25
2019-03-21T23:49:46.086Z,99320.31
2019-03-21T23:52:17.307Z,99322.17
2019-03-21T23:54:48.371Z,99323.17
2019-03-21T23:57:19.803Z,99320.19
2019-03-21T23:59:50.908Z,99314.08
